Shirley, Pennsylvania
Current Conditions -  °F | °C
As of 8:53 AM on Wednesday 26 Nov 2014 (Local Time) from KAOO Reporting Station
Moderate Snow Moderate Snow  
Wind Chill: 25°   Ceiling: 1600
Heat Index: 31°   Visibility: 0.5mi
Dew Point: 30°   Wind: 6mph
Humidity: 96%   Direction: 30°NNE
Pressure: 30.07"   Gusts: NA
Location:  40.4281°N, 77.8329°W
Report Text: KAOO 261353Z AUTO 03005KT 1/2SM SN FZFG OVC016 M01/M01 A3007 RMK AO2 SLP195 P0000 T10061011
Loading
Personal Weather Stations






























Interactive Weather Map New forecast layout! Learn more

10-Day Weather Forecast

Advertisements
Track Severe Weather on mobile